Time;durP1;ratioP1;P1;durP2;ratioP2;P2;SDS_P1;SDS_P2;PMS_P1;PMS_P2;Temp;Humidity;BMP_temperature;BMP_pressure;BME280_temperature;BME280_humidity;BME280_pressure;Samples;Min_cycle;Max_cycle;Signal;HPM_P1;HPM_P2
2022/09/08 00:02:16;;;;;;;9.57;7.15;;;16.80;99.90;;;;;;5013124;28;20044;-88
2022/09/08 00:04:43;;;;;;;8.90;7.22;;;16.80;99.90;;;;;;5014997;28;20075;-88
2022/09/08 00:07:09;;;;;;;11.73;6.95;;;16.70;99.90;;;;;;5030281;28;20404;-89
2022/09/08 00:09:35;;;;;;;10.30;9.05;;;16.70;99.90;;;;;;5030209;28;20589;-88
2022/09/08 00:12:02;;;;;;;10.23;8.02;;;16.70;99.90;;;;;;5030508;28;20049;-88
2022/09/08 00:14:30;;;;;;;10.43;8.68;;;16.70;99.90;;;;;;5013007;28;20080;-89
2022/09/08 00:16:56;;;;;;;13.45;9.80;;;16.70;99.90;;;;;;5014709;28;20405;-88
2022/09/08 00:19:22;;;;;;;12.73;9.73;;;17.40;99.90;;;;;;5013286;28;20057;-88
2022/09/08 00:21:48;;;;;;;11.07;9.93;;;16.70;99.90;;;;;;4981506;28;20072;-89
2022/09/08 00:24:13;;;;;;;11.75;10.50;;;16.70;99.90;;;;;;5012912;28;20132;-88
2022/09/08 00:26:39;;;;;;;12.55;10.23;;;16.60;99.90;;;;;;4997686;28;20041;-89
2022/09/08 00:29:05;;;;;;;16.75;12.88;;;16.60;99.90;;;;;;5030452;28;20103;-88
2022/09/08 00:31:31;;;;;;;14.85;12.07;;;16.70;99.90;;;;;;4996436;28;20049;-88
2022/09/08 00:33:57;;;;;;;16.85;12.60;;;16.70;99.90;;;;;;5015032;28;20037;-89
2022/09/08 00:36:23;;;;;;;19.33;13.88;;;16.70;99.90;;;;;;5028814;28;20041;-88
2022/09/08 00:38:51;;;;;;;17.63;13.93;;;16.60;99.90;;;;;;5030747;28;20136;-88
2022/09/08 00:41:18;;;;;;;17.15;15.43;;;16.70;99.90;;;;;;5029150;28;20045;-88
2022/09/08 00:43:46;;;;;;;15.68;13.95;;;16.60;99.90;;;;;;5013656;28;20461;-88
2022/09/08 00:46:12;;;;;;;18.65;15.65;;;16.60;99.90;;;;;;5013718;28;20041;-88
2022/09/08 00:49:07;;;;;;;16.50;14.77;;;16.60;99.90;;;;;;5029369;28;20477;-88
2022/09/08 00:51:35;;;;;;;17.73;15.75;;;16.60;99.90;;;;;;5012413;28;20092;-88
2022/09/08 00:54:01;;;;;;;18.02;16.23;;;17.20;99.90;;;;;;5028903;28;20048;-88
2022/09/08 00:56:29;;;;;;;19.80;17.70;;;16.60;99.90;;;;;;5029567;28;20496;-89
2022/09/08 00:58:56;;;;;;;20.08;17.92;;;16.60;99.90;;;;;;5029360;28;20128;-88
2022/09/08 01:01:21;;;;;;;21.10;18.17;;;16.60;99.90;;;;;;5012974;28;20045;-89
2022/09/08 01:03:47;;;;;;;22.92;19.20;;;17.00;99.90;;;;;;5020487;28;20041;-89
2022/09/08 01:14:56;;;;;;;24.10;21.33;;;16.50;99.90;;;;;;5035051;28;20051;-88
2022/09/08 01:17:25;;;;;;;23.83;20.27;;;16.50;99.90;;;;;;5037412;28;20082;-88
2022/09/08 01:19:52;;;;;;;22.75;20.15;;;16.50;99.90;;;;;;5020183;28;20443;-88
2022/09/08 01:22:21;;;;;;;22.83;19.85;;;16.50;99.90;;;;;;5016672;28;20045;-88
2022/09/08 01:25:14;;;;;;;24.70;22.10;;;16.50;99.90;;;;;;5032587;28;20045;-88
2022/09/08 01:27:40;;;;;;;25.65;22.15;;;16.50;99.90;;;;;;5029059;28;20091;-88
2022/09/08 01:30:10;;;;;;;25.10;21.98;;;16.40;99.90;;;;;;5030662;28;20357;-88
2022/09/08 01:32:40;;;;;;;25.15;22.58;;;16.50;99.90;;;;;;5012240;28;20091;-88
2022/09/08 01:35:07;;;;;;;27.83;23.92;;;16.40;99.90;;;;;;5029537;28;20124;-88
2022/09/08 01:37:32;;;;;;;24.40;21.85;;;16.50;99.90;;;;;;5012942;28;20041;-88
2022/09/08 01:39:58;;;;;;;27.27;24.38;;;16.40;99.90;;;;;;5012021;28;20068;-88
2022/09/08 01:42:24;;;;;;;27.13;24.27;;;16.40;99.90;;;;;;5013283;28;20041;-88
2022/09/08 01:44:50;;;;;;;26.75;24.05;;;16.50;99.90;;;;;;5011690;28;20072;-88
2022/09/08 01:47:16;;;;;;;27.98;24.98;;;16.80;99.90;;;;;;4996636;28;20668;-88
2022/09/08 01:49:42;;;;;;;28.75;24.35;;;17.30;99.90;;;;;;5011397;28;20048;-88
2022/09/08 01:52:08;;;;;;;29.08;25.98;;;16.50;99.90;;;;;;4995975;28;20076;-88
2022/09/08 01:54:34;;;;;;;32.22;28.33;;;16.60;99.90;;;;;;5012464;28;20508;-88
2022/09/08 01:57:00;;;;;;;31.00;26.63;;;16.60;99.90;;;;;;5011540;28;20048;-88
2022/09/08 01:59:26;;;;;;;31.17;27.02;;;16.80;99.90;;;;;;4996537;28;20562;-88
2022/09/08 02:01:52;;;;;;;32.15;27.73;;;16.60;99.90;;;;;;5010772;28;20049;-88
2022/09/08 02:04:18;;;;;;;31.00;27.70;;;16.60;99.90;;;;;;4996426;28;20041;-88
2022/09/08 02:06:45;;;;;;;34.13;28.40;;;16.60;99.90;;;;;;5011385;28;20531;-88
2022/09/08 02:09:11;;;;;;;34.20;29.75;;;16.90;99.90;;;;;;5028268;28;20476;-88
2022/09/08 02:11:37;;;;;;;31.90;28.60;;;16.70;99.90;;;;;;5027963;28;20052;-88
2022/09/08 02:14:03;;;;;;;33.63;29.98;;;16.80;99.90;;;;;;5011978;28;20044;-88
2022/09/08 02:16:29;;;;;;;31.65;28.38;;;16.80;99.90;;;;;;4996236;28;20095;-88
2022/09/08 02:18:56;;;;;;;32.88;28.70;;;16.80;99.90;;;;;;5010588;28;20048;-88
2022/09/08 02:21:27;;;;;;;32.47;28.75;;;16.80;99.90;;;;;;5012718;28;20040;-88
2022/09/08 02:23:53;;;;;;;32.50;29.08;;;16.90;99.90;;;;;;5027371;28;20045;-88
2022/09/08 02:26:21;;;;;;;32.58;28.88;;;16.90;99.90;;;;;;5028390;28;20123;-88
2022/09/08 02:28:47;;;;;;;32.58;28.55;;;16.90;99.90;;;;;;5011918;28;20489;-88
2022/09/08 02:31:13;;;;;;;31.80;28.45;;;16.90;99.90;;;;;;5044304;28;20128;-88
2022/09/08 02:33:40;;;;;;;36.72;30.42;;;17.00;99.90;;;;;;5029304;28;20475;-88
2022/09/08 02:36:06;;;;;;;34.15;30.55;;;17.00;99.90;;;;;;5026808;28;20124;-87
2022/09/08 02:38:32;;;;;;;34.53;28.85;;;17.00;99.90;;;;;;5028596;28;20157;-87
2022/09/08 02:40:59;;;;;;;33.80;30.25;;;17.00;99.90;;;;;;4994700;28;20049;-88
2022/09/08 02:43:26;;;;;;;33.75;29.27;;;17.00;99.90;;;;;;5012060;28;20063;-88
2022/09/08 02:45:52;;;;;;;35.53;31.60;;;17.00;99.90;;;;;;4998590;28;20045;-88
2022/09/08 02:48:18;;;;;;;35.42;31.73;;;17.00;99.90;;;;;;5014924;28;20056;-88
2022/09/08 02:50:44;;;;;;;32.25;28.88;;;17.90;99.90;;;;;;5016030;28;20122;-88
2022/09/08 02:53:10;;;;;;;34.97;31.25;;;17.00;99.90;;;;;;5030285;28;20052;-88
2022/09/08 02:55:40;;;;;;;33.53;29.95;;;17.10;99.90;;;;;;5033020;28;20048;-88
2022/09/08 02:58:07;;;;;;;32.17;28.98;;;17.10;99.90;;;;;;5014696;28;20165;-88
2022/09/08 03:00:38;;;;;;;35.75;30.15;;;17.10;99.90;;;;;;5015556;28;20045;-88
2022/09/08 03:03:04;;;;;;;32.85;29.52;;;17.10;99.90;;;;;;5015191;28;20051;-88
2022/09/08 03:05:30;;;;;;;33.85;30.15;;;17.10;99.90;;;;;;5014536;28;20098;-88
2022/09/08 03:07:58;;;;;;;34.80;30.98;;;17.10;99.90;;;;;;5016209;28;20556;-88
2022/09/08 03:10:23;;;;;;;34.97;31.15;;;17.10;99.90;;;;;;5030239;28;20073;-88
2022/09/08 03:12:54;;;;;;;35.80;30.27;;;17.80;99.90;;;;;;5015679;28;20127;-88
2022/09/08 03:15:21;;;;;;;37.97;32.38;;;17.10;99.90;;;;;;5030872;28;20053;-87
2022/09/08 03:17:47;;;;;;;38.35;34.03;;;17.10;99.90;;;;;;5015357;28;20053;-88
2022/09/08 03:20:15;;;;;;;36.75;32.80;;;16.50;99.90;;;;;;4999187;28;20547;-88
2022/09/08 03:22:41;;;;;;;37.90;33.80;;;17.10;99.90;;;;;;4997853;28;20048;-88
2022/09/08 03:25:07;;;;;;;40.42;34.38;;;17.20;99.90;;;;;;5016006;28;20045;-88
2022/09/08 03:27:33;;;;;;;35.75;32.15;;;17.10;99.90;;;;;;5030218;28;20052;-87
2022/09/08 03:29:58;;;;;;;37.15;33.35;;;17.10;99.90;;;;;;5031661;28;20412;-88
2022/09/08 03:32:24;;;;;;;38.08;34.05;;;17.10;99.90;;;;;;4997518;28;20041;-88
2022/09/08 03:34:50;;;;;;;39.70;35.38;;;17.10;99.90;;;;;;5014605;28;20045;-87
2022/09/08 03:37:16;;;;;;;39.83;35.55;;;17.10;99.90;;;;;;5014721;28;20171;-87
2022/09/08 03:39:41;;;;;;;37.33;33.53;;;17.10;99.90;;;;;;5030611;28;20130;-89
2022/09/08 03:42:07;;;;;;;41.15;36.70;;;17.10;99.90;;;;;;4998841;28;20485;-88
2022/09/08 03:44:33;;;;;;;41.10;36.70;;;17.10;99.90;;;;;;5013699;28;20124;-88
2022/09/08 03:46:59;;;;;;;42.90;38.05;;;17.10;99.90;;;;;;5014996;28;20044;-88
2022/09/08 03:49:25;;;;;;;40.10;35.80;;;17.10;99.90;;;;;;5013292;28;20049;-88
2022/09/08 03:51:51;;;;;;;41.63;37.13;;;17.10;99.90;;;;;;5030741;28;20541;-89
2022/09/08 03:57:02;;;;;;;42.78;37.35;;;17.20;99.90;;;;;;5033023;28;20041;-88
2022/09/08 03:59:29;;;;;;;48.47;38.42;;;17.10;99.90;;;;;;5036100;28;20427;-88
2022/09/08 04:01:55;;;;;;;42.65;37.15;;;17.20;99.90;;;;;;5018556;28;20053;-88
2022/09/08 04:04:24;;;;;;;43.30;38.08;;;17.20;99.90;;;;;;5016306;28;20163;-89
2022/09/08 04:06:50;;;;;;;44.65;39.00;;;17.20;99.90;;;;;;5013432;28;20492;-89
2022/09/08 04:09:16;;;;;;;46.90;38.97;;;17.30;99.90;;;;;;5013820;28;20041;-89
2022/09/08 04:11:42;;;;;;;46.80;39.75;;;17.20;99.90;;;;;;5013997;28;20393;-89
2022/09/08 04:14:08;;;;;;;44.47;39.53;;;17.20;99.90;;;;;;5013187;28;20081;-89
2022/09/08 04:16:35;;;;;;;45.63;40.45;;;17.20;99.90;;;;;;5014714;28;20045;-89
2022/09/08 04:19:00;;;;;;;45.85;40.88;;;17.20;99.90;;;;;;5012623;28;20056;-89
2022/09/08 04:21:26;;;;;;;46.25;41.33;;;17.30;99.90;;;;;;5031026;28;20045;-88
2022/09/08 04:23:52;;;;;;;46.85;40.83;;;17.30;99.90;;;;;;4997617;28;20087;-87
2022/09/08 04:26:18;;;;;;;46.10;40.33;;;17.30;99.90;;;;;;5030040;28;20429;-88
2022/09/08 04:28:44;;;;;;;45.30;40.35;;;17.30;99.90;;;;;;5029683;28;20684;-87
2022/09/08 04:31:13;;;;;;;44.40;39.60;;;17.30;99.90;;;;;;5013049;28;20045;-88
2022/09/08 04:33:38;;;;;;;47.28;40.78;;;17.30;99.90;;;;;;4998143;28;20439;-87
2022/09/08 04:36:08;;;;;;;49.08;42.45;;;17.30;99.90;;;;;;4996226;28;20424;-87
2022/09/08 04:38:33;;;;;;;48.40;40.72;;;17.30;99.90;;;;;;5030807;28;20443;-87
2022/09/08 04:41:04;;;;;;;44.30;39.60;;;17.30;99.90;;;;;;4996179;28;20037;-90
2022/09/08 04:43:34;;;;;;;46.85;41.70;;;17.30;99.90;;;;;;5030247;28;20120;-87
2022/09/08 04:46:01;;;;;;;46.80;40.80;;;17.30;99.90;;;;;;5014163;28;20122;-90
2022/09/08 04:48:29;;;;;;;44.95;40.08;;;17.30;99.90;;;;;;5029531;28;20044;-88
2022/09/08 04:50:55;;;;;;;48.67;41.75;;;17.30;99.90;;;;;;5013855;28;20581;-87
2022/09/08 04:53:20;;;;;;;53.13;42.78;;;17.30;99.90;;;;;;4995766;28;20080;-87
2022/09/08 04:55:46;;;;;;;48.10;42.85;;;17.30;99.90;;;;;;4997049;28;20131;-86
2022/09/08 04:58:12;;;;;;;47.65;41.35;;;17.30;99.90;;;;;;5012169;28;20077;-87
2022/09/08 05:00:37;;;;;;;48.97;42.58;;;17.30;99.90;;;;;;5012699;28;20095;-86
2022/09/08 05:03:03;;;;;;;47.58;40.47;;;17.30;99.90;;;;;;4996513;28;20055;-88
2022/09/08 05:05:28;;;;;;;48.55;42.08;;;17.30;99.90;;;;;;5012680;28;20143;-86
2022/09/08 05:07:54;;;;;;;47.53;42.25;;;17.30;99.90;;;;;;5013610;28;20037;-91
2022/09/08 05:10:22;;;;;;;48.10;41.47;;;17.50;99.90;;;;;;4996235;28;20623;-91
2022/09/08 05:12:47;;;;;;;49.47;43.88;;;17.30;99.90;;;;;;5000220;28;20045;-92
2022/09/08 05:15:13;;;;;;;51.10;44.65;;;17.30;99.90;;;;;;5012835;28;20477;-92
2022/09/08 05:17:39;;;;;;;55.58;43.75;;;17.30;99.90;;;;;;5030371;28;20084;-87
2022/09/08 05:20:07;;;;;;;49.65;44.25;;;17.30;99.90;;;;;;5013099;28;20041;-86
2022/09/08 05:22:32;;;;;;;51.10;43.47;;;17.30;99.90;;;;;;5014031;28;20048;-88
2022/09/08 05:25:00;;;;;;;47.33;42.00;;;17.30;99.90;;;;;;4997821;28;20044;-90
2022/09/08 05:27:25;;;;;;;48.70;43.40;;;17.30;99.90;;;;;;4995942;28;20041;-89
2022/09/08 05:29:51;;;;;;;48.15;42.95;;;18.10;99.90;;;;;;4997562;28;20099;-89
2022/09/08 05:32:16;;;;;;;47.90;42.00;;;17.40;99.90;;;;;;5012337;28;20126;-89
2022/09/08 05:34:42;;;;;;;48.25;43.10;;;17.40;99.90;;;;;;4997374;28;20431;-90
2022/09/08 05:37:08;;;;;;;53.08;43.22;;;17.40;99.90;;;;;;4997201;28;20094;-90
2022/09/08 05:39:33;;;;;;;49.00;42.78;;;17.40;99.90;;;;;;4996446;28;20052;-90
2022/09/08 05:41:59;;;;;;;49.85;44.20;;;17.40;99.90;;;;;;4997530;28;20041;-90
2022/09/08 05:44:25;;;;;;;52.75;43.47;;;17.50;99.90;;;;;;4996339;28;20243;-90
2022/09/08 05:46:51;;;;;;;50.75;44.35;;;17.50;99.90;;;;;;5014339;28;20056;-89
2022/09/08 05:49:16;;;;;;;56.00;45.55;;;17.50;99.90;;;;;;4995943;28;20068;-89
2022/09/08 05:51:42;;;;;;;47.35;42.28;;;17.50;99.90;;;;;;4999087;28;20136;-90
2022/09/08 05:54:08;;;;;;;45.85;40.92;;;17.50;99.90;;;;;;5029365;28;20099;-90
2022/09/08 05:56:34;;;;;;;47.67;39.78;;;17.60;99.90;;;;;;4998937;28;20083;-92
2022/09/08 05:59:00;;;;;;;50.28;40.42;;;17.60;99.90;;;;;;4997435;28;20461;-90
2022/09/08 06:01:27;;;;;;;43.45;38.85;;;17.60;99.90;;;;;;5012315;28;20047;-90
2022/09/08 06:03:54;;;;;;;45.40;38.47;;;17.70;99.90;;;;;;5014140;28;20041;-91
2022/09/08 06:06:20;;;;;;;51.25;41.50;;;17.70;99.90;;;;;;5012205;28;20033;-91
2022/09/08 06:08:46;;;;;;;44.00;39.28;;;18.40;99.90;;;;;;4997537;28;20052;-91
2022/09/08 06:11:12;;;;;;;44.78;38.95;;;17.80;99.90;;;;;;5012281;28;20044;-92
2022/09/08 06:13:38;;;;;;;46.55;41.58;;;17.80;99.90;;;;;;4980942;28;20064;-91
2022/09/08 06:16:12;;;;;;;46.55;41.00;;;17.80;99.90;;;;;;4996290;28;20397;-91
2022/09/08 06:18:41;;;;;;;45.13;40.33;;;17.90;99.90;;;;;;5011588;28;20217;-91
2022/09/08 06:21:24;;;;;;;45.35;39.47;;;17.90;99.90;;;;;;5030283;28;20334;-90
2022/09/08 06:23:58;;;;;;;45.95;40.92;;;17.90;99.90;;;;;;5028476;28;20045;-90
2022/09/08 06:26:54;;;;;;;45.20;40.35;;;18.20;99.90;;;;;;5029251;28;20049;-90
2022/09/08 06:29:27;;;;;;;47.00;40.92;;;17.90;99.90;;;;;;5030428;28;20108;-90
2022/09/08 06:32:18;;;;;;;46.00;40.00;;;17.90;99.90;;;;;;5027451;28;20400;-88
2022/09/08 06:34:52;;;;;;;45.25;40.42;;;17.90;99.90;;;;;;5028541;28;20051;-87
2022/09/08 06:37:40;;;;;;;45.05;40.20;;;17.90;99.90;;;;;;5027977;28;20396;-88
2022/09/08 06:40:21;;;;;;;49.72;41.92;;;17.90;99.90;;;;;;4991565;28;20114;-87
2022/09/08 06:42:57;;;;;;;47.15;41.90;;;17.90;99.90;;;;;;5028830;28;20060;-87
2022/09/08 06:45:30;;;;;;;47.92;41.13;;;17.90;99.90;;;;;;5027267;28;20048;-88
2022/09/08 06:48:12;;;;;;;48.10;41.97;;;17.90;99.90;;;;;;5028140;28;20048;-87
2022/09/08 06:50:48;;;;;;;47.78;41.00;;;17.90;99.90;;;;;;5028379;28;20527;-87
2022/09/08 06:53:21;;;;;;;44.95;40.20;;;17.90;99.90;;;;;;5027354;28;20037;-87
2022/09/08 06:55:58;;;;;;;50.03;41.60;;;17.90;99.90;;;;;;5028586;28;20436;-87
2022/09/08 06:58:30;;;;;;;50.65;42.35;;;17.90;99.90;;;;;;5027061;28;20540;-87
2022/09/08 07:01:18;;;;;;;52.00;44.33;;;17.80;99.90;;;;;;5027317;28;20527;-87
2022/09/08 07:04:14;;;;;;;48.53;41.63;;;17.90;99.90;;;;;;5028524;28;20053;-88
2022/09/08 07:06:57;;;;;;;50.45;43.80;;;17.80;99.90;;;;;;5027060;28;20059;-87
2022/09/08 07:09:41;;;;;;;53.00;42.53;;;17.80;99.90;;;;;;5027512;28;20132;-87
2022/09/08 07:12:09;;;;;;;55.20;44.28;;;17.80;99.90;;;;;;5028017;28;20497;-86
2022/09/08 07:14:56;;;;;;;53.72;45.60;;;17.80;99.90;;;;;;5044596;28;20048;-86
2022/09/08 07:17:59;;;;;;;52.85;44.53;;;17.80;99.90;;;;;;5027456;28;20501;-87
2022/09/08 07:20:27;;;;;;;52.38;41.85;;;17.80;99.90;;;;;;5027731;28;20084;-86
2022/09/08 07:23:04;;;;;;;49.08;43.33;;;17.70;99.90;;;;;;5010690;28;20041;-88
2022/09/08 07:25:48;;;;;;;54.90;44.47;;;17.70;99.90;;;;;;5028583;28;20321;-88
2022/09/08 07:28:31;;;;;;;49.35;42.75;;;17.70;99.90;;;;;;5027214;28;20107;-87
2022/09/08 07:31:00;;;;;;;48.08;42.90;;;17.70;99.90;;;;;;5029468;28;20045;-87
2022/09/08 07:33:38;;;;;;;49.15;43.85;;;17.70;99.90;;;;;;5032488;28;20049;-89
2022/09/08 07:36:33;;;;;;;51.30;44.25;;;17.60;99.90;;;;;;5031033;28;20059;-88
2022/09/08 07:39:09;;;;;;;50.10;44.13;;;17.60;99.90;;;;;;5031803;28;20048;-90
2022/09/08 07:41:46;;;;;;;55.92;46.08;;;17.60;99.90;;;;;;5036094;28;20045;-92
2022/09/08 07:44:15;;;;;;;56.55;46.65;;;17.60;99.90;;;;;;5051425;28;20045;-90
2022/09/08 07:47:07;;;;;;;53.35;45.20;;;17.50;99.90;;;;;;5036861;28;20044;-91
2022/09/08 07:50:02;;;;;;;51.65;43.38;;;17.50;99.90;;;;;;5059196;28;20131;-92
2022/09/08 07:52:57;;;;;;;48.00;39.65;;;17.50;99.90;;;;;;5021275;28;20055;-91
2022/09/08 07:55:31;;;;;;;52.58;43.15;;;17.40;99.90;;;;;;5014605;28;20045;-89
2022/09/08 07:58:06;;;;;;;44.90;37.33;;;17.40;99.90;;;;;;5041598;28;20049;-90
2022/09/08 08:00:34;;;;;;;41.20;35.63;;;17.40;99.90;;;;;;5025056;28;20582;-90
2022/09/08 08:03:32;;;;;;;44.42;36.15;;;17.40;99.90;;;;;;5052711;28;20080;-88
2022/09/08 08:06:11;;;;;;;43.28;34.42;;;17.40;99.90;;;;;;5015409;28;20059;-88
2022/09/08 08:09:13;;;;;;;41.80;35.13;;;17.30;99.90;;;;;;5031837;28;20056;-88
2022/09/08 08:12:02;;;;;;;41.28;34.35;;;17.30;99.90;;;;;;5011799;28;20053;-87
2022/09/08 08:14:43;;;;;;;42.35;34.60;;;17.30;99.90;;;;;;5030453;28;20416;-89
2022/09/08 08:17:35;;;;;;;42.80;34.80;;;17.30;99.90;;;;;;5031046;28;20472;-89
2022/09/08 08:20:25;;;;;;;42.10;34.67;;;17.30;99.90;;;;;;5030129;28;20053;-88
2022/09/08 08:23:05;;;;;;;37.75;32.53;;;17.20;99.90;;;;;;5030058;28;20049;-88
2022/09/08 08:25:54;;;;;;;38.03;33.92;;;17.30;99.90;;;;;;5030876;28;20041;-88
2022/09/08 08:28:22;;;;;;;40.80;32.80;;;17.30;99.90;;;;;;5030026;28;20119;-87
2022/09/08 08:31:09;;;;;;;38.40;33.95;;;17.20;99.90;;;;;;5014026;28;20507;-88
2022/09/08 08:33:47;;;;;;;33.70;28.25;;;17.30;99.90;;;;;;5032243;28;20511;-89
2022/09/08 08:36:20;;;;;;;35.55;29.92;;;17.20;99.90;;;;;;5031117;28;20052;-88
2022/09/08 08:38:53;;;;;;;35.00;29.63;;;17.30;99.90;;;;;;5016517;28;20377;-90
2022/09/08 08:41:34;;;;;;;36.80;30.20;;;17.30;99.90;;;;;;5048852;28;20111;-88
2022/09/08 08:44:22;;;;;;;34.55;29.00;;;17.30;99.90;;;;;;5029125;28;20049;-87
2022/09/08 08:46:59;;;;;;;33.42;29.77;;;17.30;99.90;;;;;;5030762;28;20092;-87
2022/09/08 08:49:43;;;;;;;37.15;30.38;;;17.80;99.90;;;;;;5029488;28;20082;-87
2022/09/08 08:52:27;;;;;;;37.88;29.98;;;17.40;99.90;;;;;;5029346;28;20041;-87
2022/09/08 08:55:13;;;;;;;35.40;30.25;;;17.50;99.90;;;;;;5030566;28;20404;-87
2022/09/08 08:57:51;;;;;;;38.30;29.40;;;17.60;99.90;;;;;;5028589;28;20160;-87
2022/09/08 09:00:47;;;;;;;38.30;29.58;;;17.60;99.90;;;;;;5029690;28;20037;-87
2022/09/08 09:03:29;;;;;;;36.90;31.38;;;17.70;99.90;;;;;;5027035;28;20055;-87
2022/09/08 09:06:06;;;;;;;32.97;29.45;;;17.80;99.90;;;;;;5028756;28;20488;-86
2022/09/08 09:09:21;;;;;;;32.95;29.52;;;17.80;99.90;;;;;;5030185;28;20454;-87
2022/09/08 09:12:05;;;;;;;32.58;29.02;;;17.80;99.90;;;;;;5005531;28;20114;-87
2022/09/08 09:14:36;;;;;;;33.10;29.10;;;17.80;99.90;;;;;;5028124;28;20049;-86
2022/09/08 09:17:20;;;;;;;34.42;30.77;;;17.80;99.90;;;;;;5029246;28;20083;-86
2022/09/08 09:19:56;;;;;;;34.03;30.45;;;17.80;99.90;;;;;;5028841;28;20404;-87
2022/09/08 09:22:51;;;;;;;37.20;31.15;;;17.90;99.90;;;;;;5029340;28;20045;-87
2022/09/08 09:25:19;;;;;;;33.05;29.45;;;17.80;99.90;;;;;;5030064;28;20052;-87
2022/09/08 09:28:16;;;;;;;33.75;29.55;;;17.90;99.90;;;;;;5028148;28;20522;-87
2022/09/08 09:30:58;;;;;;;35.45;29.83;;;17.90;99.90;;;;;;5028925;28;20101;-86
2022/09/08 09:33:49;;;;;;;34.85;31.15;;;17.90;99.90;;;;;;5029583;28;20056;-87
2022/09/08 09:36:30;;;;;;;32.00;28.15;;;17.90;99.90;;;;;;5028195;28;20055;-87
2022/09/08 09:39:07;;;;;;;31.88;27.02;;;17.90;99.90;;;;;;5029511;28;20135;-87
2022/09/08 09:41:58;;;;;;;33.85;29.30;;;17.90;99.90;;;;;;5030387;28;20079;-87
2022/09/08 09:44:42;;;;;;;31.80;28.00;;;18.00;99.90;;;;;;5029322;28;20558;-87
2022/09/08 09:47:36;;;;;;;28.33;25.10;;;18.00;99.90;;;;;;5032021;28;20049;-87
2022/09/08 09:50:29;;;;;;;25.65;22.90;;;18.10;99.90;;;;;;5013415;28;20056;-87
2022/09/08 09:53:02;;;;;;;;;;;18.20;99.90;;;;;;5030429;28;20040;-87
2022/09/08 09:55:58;;;;;;;17.02;15.27;;;18.30;99.90;;;;;;5030426;28;19925;-87
2022/09/08 09:59:02;;;;;;;15.32;13.82;;;18.30;99.90;;;;;;5028111;28;20048;-88
2022/09/08 10:01:48;;;;;;;14.30;12.93;;;18.40;99.90;;;;;;5027884;28;20045;-87
2022/09/08 10:04:25;;;;;;;17.02;12.90;;;18.40;99.90;;;;;;5029778;28;20052;-87
2022/09/08 10:07:13;;;;;;;15.20;12.98;;;18.50;99.90;;;;;;5029237;28;20049;-91
2022/09/08 10:10:00;;;;;;;15.15;13.68;;;18.50;99.90;;;;;;5030199;28;20073;-91
2022/09/08 10:12:47;;;;;;;16.02;14.40;;;18.40;99.90;;;;;;5030812;28;20408;-91
2022/09/08 10:15:31;;;;;;;15.77;13.93;;;18.40;99.90;;;;;;5013272;28;20041;-92
2022/09/08 10:18:29;;;;;;;16.75;14.07;;;18.50;99.90;;;;;;5029793;28;20238;-91
2022/09/08 10:21:10;;;;;;;13.80;12.40;;;18.50;99.90;;;;;;5030061;28;20041;-89
2022/09/08 10:23:44;;;;;;;13.80;12.30;;;18.50;99.90;;;;;;5027884;28;20056;-89
2022/09/08 10:26:50;;;;;;;14.05;12.63;;;18.50;99.90;;;;;;5029161;28;20496;-90
2022/09/08 10:29:52;;;;;;;15.52;13.10;;;18.40;99.90;;;;;;5030411;28;20087;-89
2022/09/08 10:32:30;;;;;;;14.15;12.75;;;18.30;99.90;;;;;;5004551;28;20111;-88
2022/09/08 10:35:05;;;;;;;16.23;14.43;;;19.20;99.90;;;;;;5028741;28;20045;-89
2022/09/08 10:38:11;;;;;;;11.57;10.40;;;18.30;99.90;;;;;;5045731;28;20504;-89
2022/09/08 10:41:05;;;;;;;11.07;8.23;;;18.30;99.90;;;;;;5028418;28;20134;-89
2022/09/08 10:43:36;;;;;;;9.07;8.13;;;18.20;99.90;;;;;;5012309;28;20091;-90
2022/09/08 10:46:47;;;;;;;9.90;7.80;;;18.20;99.90;;;;;;5029052;28;20052;-89
2022/09/08 10:49:19;;;;;;;7.15;6.45;;;18.20;99.90;;;;;;5005422;28;20136;-89
2022/09/08 10:52:16;;;;;;;7.37;6.67;;;18.20;99.90;;;;;;5028528;28;20045;-89
2022/09/08 10:55:13;;;;;;;7.70;6.40;;;18.20;99.90;;;;;;5013069;28;20049;-89
2022/09/08 10:57:53;;;;;;;5.60;4.47;;;18.20;99.90;;;;;;5027723;28;20087;-89
2022/09/08 11:00:21;;;;;;;4.15;3.33;;;18.20;99.90;;;;;;5028272;28;20057;-87
2022/09/08 11:02:58;;;;;;;3.83;3.47;;;18.20;99.90;;;;;;4995429;28;20049;-87
2022/09/08 11:05:49;;;;;;;4.22;3.30;;;18.10;99.90;;;;;;5028301;28;20080;-85
2022/09/08 11:08:40;;;;;;;4.22;2.47;;;18.00;99.90;;;;;;5015873;28;20041;-86
2022/09/08 11:11:05;;;;;;;5.00;2.53;;;18.00;99.90;;;;;;5031281;28;20468;-86
2022/09/08 11:13:52;;;;;;;5.07;3.05;;;17.90;99.90;;;;;;5031327;28;20601;-87
2022/09/08 11:16:35;;;;;;;3.78;2.65;;;17.90;99.90;;;;;;5025113;28;20136;-87
2022/09/08 11:19:13;;;;;;;4.35;2.60;;;17.90;99.90;;;;;;5030975;28;20407;-86
2022/09/08 11:22:10;;;;;;;5.53;2.97;;;17.80;99.90;;;;;;5031279;28;20147;-87
2022/09/08 11:25:13;;;;;;;4.55;2.42;;;17.80;99.90;;;;;;5031812;28;20095;-87
2022/09/08 11:28:11;;;;;;;7.22;3.30;;;17.80;99.90;;;;;;5030346;28;20491;-87
2022/09/08 11:30:57;;;;;;;7.28;2.25;;;17.70;99.90;;;;;;5031381;28;20052;-87
2022/09/08 11:34:01;;;;;;;4.57;2.58;;;17.70;99.90;;;;;;5032643;28;20136;-88
2022/09/08 11:36:54;;;;;;;4.03;2.22;;;17.70;99.90;;;;;;5030731;28;20045;-87
2022/09/08 11:39:45;;;;;;;4.13;2.42;;;17.70;99.90;;;;;;5014243;28;20045;-88
2022/09/08 11:42:32;;;;;;;2.33;1.60;;;17.60;99.90;;;;;;5032211;28;20048;-88
2022/09/08 11:45:26;;;;;;;2.92;1.65;;;17.60;99.90;;;;;;5013866;28;20049;-89
2022/09/08 11:48:12;;;;;;;2.97;1.52;;;17.60;99.90;;;;;;5014319;28;20049;-87
2022/09/08 11:51:22;;;;;;;4.00;1.30;;;17.60;99.90;;;;;;5031693;28;20041;-87
2022/09/08 11:53:59;;;;;;;2.30;1.10;;;17.60;99.90;;;;;;4990998;28;20053;-88
2022/09/08 11:56:50;;;;;;;1.08;0.65;;;17.50;99.90;;;;;;5031024;28;20063;-88
2022/09/08 11:59:53;;;;;;;3.75;1.05;;;17.50;99.90;;;;;;5008039;28;20049;-87
2022/09/08 12:02:50;;;;;;;3.15;1.25;;;17.40;99.90;;;;;;5017021;28;20417;-88
2022/09/08 12:05:23;;;;;;;1.08;0.82;;;17.40;99.90;;;;;;5030191;28;20045;-87
2022/09/08 12:08:11;;;;;;;2.70;0.80;;;17.40;99.90;;;;;;5031530;28;20055;-88
2022/09/08 12:10:54;;;;;;;3.25;1.20;;;17.40;99.90;;;;;;5030677;28;20168;-88
2022/09/08 12:13:40;;;;;;;1.70;1.00;;;17.40;99.90;;;;;;5014098;28;20045;-88
2022/09/08 12:16:33;;;;;;;2.08;1.23;;;17.40;99.90;;;;;;5030969;28;20081;-88
2022/09/08 12:19:16;;;;;;;4.30;1.30;;;17.30;99.90;;;;;;5026983;28;20403;-88
2022/09/08 12:21:57;;;;;;;;;;;17.30;99.90;;;;;;5030994;28;20056;-88
2022/09/08 12:24:41;;;;;;;1.80;1.27;;;17.30;99.90;;;;;;5031417;28;20079;-88
2022/09/08 12:27:40;;;;;;;2.15;1.20;;;17.30;99.90;;;;;;5029614;28;20061;-88
2022/09/08 12:30:11;;;;;;;3.22;1.50;;;17.40;99.90;;;;;;5030293;28;20055;-88
2022/09/08 12:33:04;;;;;;;4.75;2.10;;;17.30;99.90;;;;;;5030034;28;20041;-89
2022/09/08 12:35:37;;;;;;;2.08;1.70;;;17.40;99.90;;;;;;5029236;28;20052;-87
2022/09/08 12:38:27;;;;;;;4.38;1.55;;;17.40;99.90;;;;;;5030375;28;20041;-88
2022/09/08 12:41:09;;;;;;;3.40;1.45;;;17.50;99.90;;;;;;5029767;28;20110;-88
2022/09/08 12:43:42;;;;;;;2.88;1.48;;;17.50;99.90;;;;;;5029949;28;20049;-88
2022/09/08 12:46:20;;;;;;;3.67;1.50;;;17.50;99.90;;;;;;5031039;28;20468;-87
2022/09/08 12:48:55;;;;;;;3.97;1.40;;;17.50;99.90;;;;;;5029181;28;20484;-88
2022/09/08 12:51:32;;;;;;;3.28;1.60;;;17.60;99.90;;;;;;5013692;28;20049;-87
2022/09/08 12:54:27;;;;;;;3.47;1.50;;;17.60;99.90;;;;;;5029468;28;20698;-88
2022/09/08 12:57:21;;;;;;;5.18;1.90;;;17.60;99.90;;;;;;5028981;28;20048;-88
2022/09/08 13:00:12;;;;;;;2.50;1.48;;;17.60;99.90;;;;;;5030004;28;20083;-88
2022/09/08 13:02:38;;;;;;;3.15;1.48;;;17.60;99.90;;;;;;5029266;28;20489;-88
2022/09/08 13:05:34;;;;;;;3.28;1.70;;;17.60;99.90;;;;;;5029089;28;20049;-89
2022/09/08 13:08:22;;;;;;;3.55;1.35;;;17.60;99.90;;;;;;5030217;28;20049;-89
2022/09/08 13:10:51;;;;;;;5.65;1.42;;;17.70;99.90;;;;;;5028681;28;20056;-89
2022/09/08 13:13:44;;;;;;;4.68;1.50;;;17.70;99.90;;;;;;5029575;28;20470;-89
2022/09/08 13:16:24;;;;;;;7.80;1.92;;;17.70;99.90;;;;;;5011500;28;20084;-89
2022/09/08 13:19:08;;;;;;;3.25;1.63;;;17.70;99.90;;;;;;5012175;28;20045;-89
2022/09/08 13:21:40;;;;;;;3.08;1.95;;;17.60;99.90;;;;;;5029675;28;20084;-89
2022/09/08 13:24:40;;;;;;;4.77;2.60;;;17.60;99.90;;;;;;5029192;28;20496;-89
2022/09/08 13:27:24;;;;;;;3.40;2.55;;;17.70;99.90;;;;;;5012027;28;20120;-88